createdAt,value
2018-12-02T00:00:14.438Z,0.82
2018-12-02T00:03:14.924Z,1.00
2018-12-02T00:06:15.403Z,0.85
2018-12-02T00:09:16.135Z,0.90
2018-12-02T00:12:19.691Z,0.80
2018-12-02T00:15:20.683Z,0.70
2018-12-02T00:18:21.950Z,0.80
2018-12-02T00:21:22.666Z,0.70
2018-12-02T00:24:23.146Z,0.80
2018-12-02T00:27:23.626Z,0.80
2018-12-02T00:30:24.364Z,0.80
2018-12-02T00:33:27.913Z,0.88
2018-12-02T00:36:28.397Z,0.82
2018-12-02T00:39:28.872Z,0.60
2018-12-02T00:42:29.612Z,1.00
2018-12-02T00:45:31.112Z,1.70
2018-12-02T00:48:31.853Z,1.32
2018-12-02T00:51:32.332Z,3.15
2018-12-02T00:54:33.064Z,4.15
2018-12-02T00:57:33.545Z,6.50
2018-12-02T01:00:34.034Z,5.25
2018-12-02T01:03:35.016Z,1.57
2018-12-02T01:06:36.016Z,1.98
2018-12-02T01:09:37.511Z,2.37
2018-12-02T01:12:37.994Z,2.90
2018-12-02T01:15:40.522Z,3.30
2018-12-02T01:18:41.257Z,1.77
2018-12-02T01:21:43.027Z,2.00
2018-12-02T01:24:39.913Z,3.08
2018-12-02T01:27:40.390Z,2.98
2018-12-02T01:30:52.400Z,5.37
2018-12-02T01:33:53.896Z,1.15
2018-12-02T01:36:58.220Z,4.42
2018-12-02T01:39:58.954Z,5.85
2018-12-02T01:42:59.944Z,3.60
2018-12-02T01:46:00.429Z,2.83
2018-12-02T01:48:59.344Z,5.67
2018-12-02T01:52:01.898Z,4.65
2018-12-02T01:55:05.451Z,2.55
2018-12-02T01:58:08.490Z,1.32
2018-12-02T02:01:11.282Z,6.50
2018-12-02T02:04:18.154Z,5.87
2018-12-02T02:07:20.935Z,4.28
2018-12-02T02:10:23.724Z,3.67
2018-12-02T02:13:21.097Z,8.70
2018-12-02T02:16:24.680Z,4.97
2018-12-02T02:19:27.212Z,3.05
2018-12-02T02:22:29.736Z,2.98
2018-12-02T02:25:32.263Z,4.15
2018-12-02T02:28:35.819Z,2.42
2018-12-02T02:31:38.345Z,1.92
2018-12-02T02:34:40.873Z,2.15
2018-12-02T02:37:43.675Z,2.35
2018-12-02T02:40:53.097Z,1.87
2018-12-02T02:43:55.625Z,2.10
2018-12-02T02:46:58.423Z,2.20
2018-12-02T02:50:01.199Z,2.98
2018-12-02T02:53:00.088Z,1.90
2018-12-02T02:56:02.924Z,1.60
2018-12-02T02:59:05.708Z,1.00
2018-12-02T03:02:08.489Z,1.30
2018-12-02T03:05:12.040Z,1.05
2018-12-02T03:08:15.852Z,2.20
2018-12-02T03:11:18.633Z,1.57
2018-12-02T03:14:21.417Z,1.82
2018-12-02T03:17:24.458Z,1.10
2018-12-02T03:20:27.239Z,1.10
2018-12-02T03:23:30.280Z,0.93
2018-12-02T03:26:33.323Z,0.85
2018-12-02T03:29:36.361Z,0.98
2018-12-02T03:32:39.144Z,1.47
2018-12-02T03:35:42.697Z,0.82
2018-12-02T03:38:45.226Z,0.80
2018-12-02T03:41:47.758Z,1.07
2018-12-02T03:44:50.792Z,1.15
2018-12-02T03:47:53.833Z,0.80
2018-12-02T03:50:56.361Z,1.02
2018-12-02T03:53:59.145Z,0.80
2018-12-02T03:57:01.678Z,1.20
2018-12-02T04:00:05.481Z,1.00
2018-12-02T04:03:08.265Z,1.75
2018-12-02T04:06:11.050Z,1.00
2018-12-02T04:09:13.586Z,0.90
2018-12-02T04:12:16.619Z,0.72
2018-12-02T04:15:19.405Z,0.80
2018-12-02T04:18:22.188Z,0.80
2018-12-02T04:21:24.974Z,0.70
2018-12-02T04:24:27.756Z,0.75
2018-12-02T04:27:30.031Z,0.60
2018-12-02T04:30:32.301Z,0.65
2018-12-02T04:33:34.826Z,0.62
2018-12-02T04:36:37.649Z,0.75
2018-12-02T04:39:41.165Z,0.70
2018-12-02T04:42:43.943Z,0.60
2018-12-02T04:45:46.729Z,0.57
2018-12-02T04:48:50.794Z,0.55
2018-12-02T04:51:53.833Z,0.50
2018-12-02T04:54:57.642Z,0.50
2018-12-02T04:58:03.497Z,0.50
2018-12-02T05:01:06.794Z,0.60
2018-12-02T05:04:09.321Z,0.40
2018-12-02T05:07:11.851Z,0.53
2018-12-02T05:10:27.433Z,0.50
2018-12-02T05:13:29.960Z,0.50
2018-12-02T05:16:35.817Z,0.50
2018-12-02T05:19:38.602Z,0.50
2018-12-02T05:22:41.391Z,0.50
2018-12-02T05:25:44.681Z,0.50
2018-12-02T05:28:47.725Z,0.55
2018-12-02T05:31:50.761Z,0.60
2018-12-02T05:34:53.546Z,0.50
2018-12-02T05:37:56.587Z,0.50
2018-12-02T05:40:55.291Z,0.70
2018-12-02T05:43:58.058Z,0.50
2018-12-02T05:47:00.840Z,0.60
2018-12-02T05:50:03.880Z,0.60
2018-12-02T05:53:06.409Z,0.68
2018-12-02T05:56:09.703Z,0.50
2018-12-02T05:59:12.489Z,0.70
2018-12-02T06:02:16.299Z,0.50
2018-12-02T06:05:19.084Z,0.68
2018-12-02T06:08:22.631Z,0.70
2018-12-02T06:11:25.420Z,0.50
2018-12-02T06:14:27.945Z,0.80
2018-12-02T06:17:30.984Z,0.70
2018-12-02T06:20:33.516Z,0.50
2018-12-02T06:23:36.040Z,0.50
2018-12-02T06:26:38.823Z,0.70
2018-12-02T06:29:41.356Z,0.55
2018-12-02T06:32:45.166Z,0.50
2018-12-02T06:35:47.945Z,0.60
2018-12-02T06:38:50.726Z,0.70
2018-12-02T06:41:53.772Z,0.60
2018-12-02T06:44:56.808Z,0.68
2018-12-02T06:47:59.847Z,0.80
2018-12-02T06:51:02.380Z,0.60
2018-12-02T06:54:04.651Z,0.60
2018-12-02T06:57:18.697Z,0.65
2018-12-02T07:00:32.747Z,0.62
2018-12-02T07:03:46.792Z,0.68
2018-12-02T07:06:50.610Z,0.50
2018-12-02T07:09:53.387Z,0.45
2018-12-02T07:12:55.912Z,0.50
2018-12-02T07:15:59.723Z,0.75
2018-12-02T07:19:13.766Z,0.60
2018-12-02T07:22:22.698Z,0.60
2018-12-02T07:25:31.883Z,0.40
2018-12-02T07:28:34.919Z,0.57
2018-12-02T07:31:37.961Z,0.50
2018-12-02T07:34:52.778Z,0.50
2018-12-02T07:38:11.955Z,0.50
2018-12-02T07:41:16.010Z,0.70
2018-12-02T07:44:18.536Z,0.60
2018-12-02T07:47:21.322Z,0.55
2018-12-02T07:50:24.108Z,0.55
2018-12-02T07:53:26.633Z,0.57
2018-12-02T07:56:29.159Z,0.47
2018-12-02T07:59:31.945Z,0.60
2018-12-02T08:02:35.497Z,0.60
2018-12-02T08:05:40.074Z,0.57
2018-12-02T08:08:42.863Z,0.60
2018-12-02T08:11:45.433Z,0.60
2018-12-02T08:14:47.911Z,0.50
2018-12-02T08:17:50.447Z,0.60
2018-12-02T08:20:53.998Z,0.60
2018-12-02T08:23:56.521Z,0.50
2018-12-02T08:26:59.308Z,0.50
2018-12-02T08:30:02.089Z,0.70
2018-12-02T08:33:04.880Z,0.60
2018-12-02T08:36:07.659Z,0.62
2018-12-02T08:39:10.447Z,0.50
2018-12-02T08:42:13.224Z,0.50
2018-12-02T08:45:15.753Z,0.53
2018-12-02T08:48:18.798Z,0.60
2018-12-02T08:51:21.579Z,0.60
2018-12-02T08:54:24.362Z,0.60
2018-12-02T08:57:26.891Z,0.50
2018-12-02T09:00:29.676Z,0.70
2018-12-02T09:03:33.482Z,0.50
2018-12-02T09:06:36.266Z,0.60
2018-12-02T09:12:59.243Z,0.70
2018-12-02T09:16:01.782Z,0.62
2018-12-02T09:19:04.812Z,0.60
2018-12-02T09:22:07.594Z,0.70
2018-12-02T09:25:10.377Z,0.60
2018-12-02T09:28:14.184Z,0.62
2018-12-02T09:31:17.028Z,0.60
2018-12-02T09:34:19.754Z,0.53
2018-12-02T09:37:22.539Z,0.40
2018-12-02T09:40:25.578Z,0.50
2018-12-02T09:43:28.618Z,0.60
2018-12-02T09:46:31.401Z,0.60
2018-12-02T09:49:33.933Z,0.50
2018-12-02T09:52:36.970Z,0.50
2018-12-02T09:55:43.594Z,0.47
2018-12-02T09:58:47.405Z,0.50
2018-12-02T10:01:50.184Z,0.60
2018-12-02T10:04:53.227Z,0.70
2018-12-02T10:07:56.266Z,0.50
2018-12-02T10:10:59.051Z,0.50
2018-12-02T10:14:02.614Z,0.70
2018-12-02T10:17:08.201Z,0.55
2018-12-02T10:20:11.252Z,0.50
2018-12-02T10:23:14.024Z,0.68
2018-12-02T10:26:16.810Z,0.72
2018-12-02T10:29:19.338Z,0.50
2018-12-02T10:32:21.865Z,0.42
2018-12-02T10:35:25.929Z,0.50
2018-12-02T10:38:28.714Z,0.50
2018-12-02T10:41:31.754Z,0.50
2018-12-02T10:44:31.727Z,0.68
2018-12-02T10:47:35.272Z,0.37
2018-12-02T10:50:39.858Z,0.50
2018-12-02T10:53:43.145Z,0.53
2018-12-02T10:56:45.931Z,0.50
2018-12-02T10:59:48.456Z,0.60
2018-12-02T11:02:52.264Z,0.70
2018-12-02T11:05:54.793Z,0.55
2018-12-02T11:08:57.326Z,0.90
2018-12-02T11:12:00.108Z,0.62
2018-12-02T11:15:02.633Z,0.47
2018-12-02T11:18:05.424Z,0.60
2018-12-02T11:21:08.201Z,0.50
2018-12-02T11:24:14.315Z,0.50
2018-12-02T11:27:16.841Z,0.60
2018-12-02T11:30:19.624Z,0.60
2018-12-02T11:33:24.205Z,0.40
2018-12-02T11:36:28.525Z,0.60
2018-12-02T11:39:31.559Z,0.70
2018-12-02T11:42:34.090Z,0.50
2018-12-02T11:45:33.545Z,0.50
2018-12-02T11:48:37.609Z,0.50
2018-12-02T11:51:40.392Z,0.60
2018-12-02T11:54:45.738Z,0.70
2018-12-02T11:57:48.524Z,0.70
2018-12-02T12:01:05.388Z,0.50
2018-12-02T12:04:09.450Z,0.50
2018-12-02T12:07:10.188Z,0.90
2018-12-02T12:10:12.203Z,0.50
2018-12-02T12:13:14.217Z,0.80
2018-12-02T12:16:14.962Z,0.80
2018-12-02T12:19:15.697Z,0.60
2018-12-02T12:22:16.426Z,0.50
2018-12-02T12:25:17.675Z,0.50
2018-12-02T12:28:18.156Z,0.50
2018-12-02T12:31:19.666Z,0.75
2018-12-02T12:34:20.137Z,0.55
2018-12-02T12:37:20.879Z,0.57
2018-12-02T12:40:22.118Z,0.70
2018-12-02T12:43:34.378Z,0.78
2018-12-02T12:46:35.115Z,0.82
2018-12-02T12:49:44.554Z,0.70
2018-12-02T12:52:45.295Z,0.78
2018-12-02T12:55:50.918Z,0.50
2018-12-02T12:58:48.304Z,0.53
2018-12-02T13:01:49.803Z,0.70
2018-12-02T13:04:51.816Z,0.78
2018-12-02T13:07:52.815Z,0.60
2018-12-02T13:10:46.203Z,0.75
2018-12-02T13:13:47.371Z,0.78
2018-12-02T13:16:48.876Z,0.80
2018-12-02T13:19:42.953Z,0.60
2018-12-02T13:22:43.947Z,0.70
2018-12-02T13:25:44.943Z,0.70
2018-12-02T13:28:45.677Z,0.70
2018-12-02T13:31:46.408Z,0.90
2018-12-02T13:34:50.733Z,0.80
2018-12-02T13:37:51.464Z,0.70
2018-12-02T13:40:52.717Z,0.60
2018-12-02T13:43:50.172Z,0.68
2018-12-02T13:46:50.865Z,0.70
2018-12-02T13:49:52.362Z,0.70
2018-12-02T13:52:53.104Z,0.50
2018-12-02T13:55:49.739Z,0.70
2018-12-02T13:58:50.473Z,0.60
2018-12-02T14:01:51.470Z,0.90
2018-12-02T14:04:48.633Z,0.60
2018-12-02T14:07:49.353Z,0.90
2018-12-02T14:10:50.348Z,0.60
2018-12-02T14:14:05.417Z,0.50
2018-12-02T14:17:10.507Z,0.45
2018-12-02T14:20:12.269Z,0.60
2018-12-02T14:23:16.584Z,0.82
2018-12-02T14:26:17.320Z,0.55
2018-12-02T14:29:38.542Z,0.70
2018-12-02T14:32:43.112Z,0.85
2018-12-02T14:35:43.593Z,0.88
2018-12-02T14:38:44.077Z,0.88
2018-12-02T14:41:49.419Z,0.88
2018-12-02T14:44:49.897Z,0.80
2018-12-02T14:47:51.401Z,0.70
2018-12-02T14:50:52.395Z,0.57
2018-12-02T14:53:52.873Z,0.50
2018-12-02T14:56:53.866Z,1.27
2018-12-02T14:59:54.859Z,1.52
2018-12-02T15:02:55.595Z,1.50
2018-12-02T15:05:57.351Z,1.72
2018-12-02T15:08:58.089Z,1.32
2018-12-02T15:11:58.838Z,1.12
2018-12-02T15:14:59.307Z,2.35
2018-12-02T15:18:00.809Z,2.60
2018-12-02T15:21:02.068Z,2.10
2018-12-02T15:23:56.911Z,1.82
2018-12-02T15:26:57.385Z,2.00
2018-12-02T15:29:58.124Z,1.45
2018-12-02T15:32:58.603Z,1.75
2018-12-02T15:36:02.922Z,2.08
2018-12-02T15:39:00.078Z,1.02
2018-12-02T15:42:00.814Z,1.50
2018-12-02T15:45:01.801Z,1.50
2018-12-02T15:48:02.537Z,0.90
2018-12-02T15:51:03.275Z,1.45
2018-12-02T15:54:04.032Z,1.25
2018-12-02T15:57:04.746Z,1.10
2018-12-02T16:00:05.486Z,1.22
2018-12-02T16:03:06.479Z,1.50
2018-12-02T16:06:07.211Z,1.52
2018-12-02T16:09:07.688Z,1.40
2018-12-02T16:12:10.134Z,1.50
2018-12-02T16:15:10.186Z,1.80
2018-12-02T16:18:11.177Z,1.10
2018-12-02T16:21:21.642Z,1.20
2018-12-02T16:24:22.124Z,1.50
2018-12-02T16:27:23.113Z,1.42
2018-12-02T16:30:24.616Z,1.60
2018-12-02T16:33:21.774Z,1.98
2018-12-02T16:36:30.952Z,1.35
2018-12-02T16:39:33.995Z,1.10
2018-12-02T16:42:36.266Z,1.40
2018-12-02T16:45:34.448Z,1.27
2018-12-02T16:48:35.434Z,1.40
2018-12-02T16:51:36.427Z,1.30
2018-12-02T16:54:37.677Z,1.70
2018-12-02T16:57:39.438Z,1.10
2018-12-02T17:00:46.825Z,1.40
2018-12-02T17:03:47.818Z,1.27
2018-12-02T17:06:49.833Z,1.32
2018-12-02T17:09:51.086Z,1.87
2018-12-02T17:12:52.075Z,1.50
2018-12-02T17:15:53.579Z,1.80
2018-12-02T17:18:54.314Z,1.75
2018-12-02T17:21:55.308Z,1.80
2018-12-02T17:24:57.074Z,1.70
2018-12-02T17:27:57.799Z,2.10
2018-12-02T17:31:15.953Z,1.52
2018-12-02T17:34:16.946Z,1.50
2018-12-02T17:37:18.185Z,1.72
2018-12-02T17:40:20.973Z,1.65
2018-12-02T17:43:21.962Z,1.98
2018-12-02T17:46:22.701Z,1.75
2018-12-02T17:49:24.713Z,1.12
2018-12-02T17:52:25.706Z,1.57
2018-12-02T17:55:26.952Z,1.45
2018-12-02T17:58:28.461Z,1.37
2018-12-02T18:01:35.339Z,3.35
2018-12-02T18:04:36.588Z,7.78
2018-12-02T18:07:31.690Z,2.20
2018-12-02T18:10:32.425Z,3.00
2018-12-02T18:13:33.165Z,2.00
2018-12-02T18:16:33.899Z,2.27
2018-12-02T18:19:30.801Z,2.12
2018-12-02T18:22:32.555Z,1.80
2018-12-02T18:25:33.545Z,1.70
2018-12-02T18:28:26.600Z,1.70
2018-12-02T18:31:28.373Z,1.82
2018-12-02T18:34:29.098Z,1.50
2018-12-02T18:37:30.346Z,1.42
2018-12-02T18:40:34.932Z,1.70
2018-12-02T18:43:36.682Z,1.98
2018-12-02T18:46:41.791Z,1.95
2018-12-02T18:49:45.064Z,1.85
2018-12-02T18:52:46.058Z,1.70
2018-12-02T18:55:47.562Z,2.00
2018-12-02T18:58:48.832Z,1.45
2018-12-02T19:01:51.596Z,1.60
2018-12-02T19:04:52.332Z,1.77
2018-12-02T19:07:54.859Z,1.30
2018-12-02T19:10:56.380Z,1.57
2018-12-02T19:13:59.153Z,1.35
2018-12-02T19:17:11.144Z,1.80
2018-12-02T19:20:12.395Z,1.50
2018-12-02T19:23:13.128Z,1.60
2018-12-02T19:26:15.151Z,1.45
2018-12-02T19:29:15.882Z,1.55
2018-12-02T19:32:16.618Z,1.50
2018-12-02T19:35:17.875Z,0.98
2018-12-02T19:38:19.368Z,1.35
2018-12-02T19:41:20.366Z,1.20
2018-12-02T19:44:21.628Z,1.32
2018-12-02T19:47:22.606Z,1.10
2018-12-02T19:50:23.339Z,1.45
2018-12-02T19:53:25.098Z,1.00
2018-12-02T19:56:27.626Z,1.35
2018-12-02T19:59:28.104Z,1.05
2018-12-02T20:02:28.589Z,1.25
2018-12-02T20:05:29.320Z,1.17
2018-12-02T20:08:31.083Z,1.15
2018-12-02T20:11:31.820Z,0.98
2018-12-02T20:14:33.580Z,1.07
2018-12-02T20:17:34.059Z,1.00
2018-12-02T20:20:37.103Z,0.88
2018-12-02T20:23:38.351Z,0.90
2018-12-02T20:26:39.082Z,0.88
2018-12-02T20:29:40.077Z,1.10
2018-12-02T20:32:37.743Z,1.15
2018-12-02T20:35:40.775Z,0.93
2018-12-02T20:38:41.777Z,1.00
2018-12-02T20:41:43.026Z,1.25
2018-12-02T20:44:38.285Z,1.00
2018-12-02T20:47:40.144Z,1.00
2018-12-02T20:50:41.645Z,0.90
2018-12-02T20:53:42.635Z,0.90
2018-12-02T20:56:43.883Z,1.10
2018-12-02T20:59:46.158Z,0.85
2018-12-02T21:02:48.168Z,1.02
2018-12-02T21:06:00.945Z,0.70
2018-12-02T21:09:01.934Z,0.80
2018-12-02T21:12:02.922Z,1.15
2018-12-02T21:15:06.990Z,1.20
2018-12-02T21:18:07.981Z,0.80
2018-12-02T21:21:08.972Z,1.00
2018-12-02T21:24:09.959Z,0.90
2018-12-02T21:27:10.709Z,1.05
2018-12-02T21:30:11.181Z,0.95
2018-12-02T21:33:11.914Z,0.93
2018-12-02T21:36:12.656Z,1.00
2018-12-02T21:39:20.557Z,0.90
2018-12-02T21:42:21.845Z,0.82
2018-12-02T21:45:22.543Z,1.15
2018-12-02T21:48:25.066Z,1.20
2018-12-02T21:51:22.478Z,0.88
2018-12-02T21:54:22.956Z,1.00
2018-12-02T21:57:23.689Z,1.20
2018-12-02T22:00:25.194Z,0.90
2018-12-02T22:03:27.720Z,0.93
2018-12-02T22:06:28.457Z,0.98
2018-12-02T22:09:29.192Z,1.00
2018-12-02T22:12:30.191Z,0.85
2018-12-02T22:15:30.663Z,0.80
2018-12-02T22:18:31.402Z,1.05
2018-12-02T22:21:24.459Z,0.80
2018-12-02T22:24:25.193Z,0.90
2018-12-02T22:27:26.954Z,0.88
2018-12-02T22:30:28.469Z,0.95
2018-12-02T22:33:30.473Z,0.95
2018-12-02T22:36:31.212Z,1.45
2018-12-02T22:39:31.691Z,0.90
2018-12-02T22:42:32.681Z,0.88
2018-12-02T22:45:33.167Z,1.00
2018-12-02T22:48:34.152Z,1.05
2018-12-02T22:51:34.888Z,0.95
2018-12-02T22:54:35.881Z,0.80
2018-12-02T22:57:36.872Z,1.10
2018-12-02T23:00:41.716Z,1.02
2018-12-02T23:03:43.468Z,1.10
2018-12-02T23:06:45.229Z,0.80
2018-12-02T23:09:46.220Z,1.10
2018-12-02T23:12:47.466Z,1.20
2018-12-02T23:31:27.980Z,0.80
2018-12-02T23:34:28.724Z,0.93
2018-12-02T23:37:29.449Z,0.78
2018-12-02T23:40:26.519Z,0.70
2018-12-02T23:43:21.451Z,1.07
2018-12-02T23:46:22.443Z,0.80
2018-12-02T23:49:23.177Z,1.27
2018-12-02T23:52:24.427Z,0.95
2018-12-02T23:55:25.166Z,0.90
2018-12-02T23:58:26.151Z,0.65
